createdAt,value
2019-04-23T00:01:49.286Z,57.50
2019-04-23T00:04:18.101Z,57.90
2019-04-23T00:06:59.351Z,57.70
2019-04-23T00:09:27.424Z,59.20
2019-04-23T00:11:59.879Z,58.60
2019-04-23T00:14:39.557Z,59.10
2019-04-23T00:17:04.697Z,59.80
2019-04-23T00:19:32.060Z,59.30
2019-04-23T00:22:16.675Z,59.80
2019-04-23T00:27:31.927Z,60.20
2019-04-23T00:30:10.379Z,60.00
2019-04-23T00:35:00.731Z,61.70
2019-04-23T00:40:03.498Z,62.10
2019-04-23T00:42:41.563Z,62.10
2019-04-23T00:45:10.235Z,62.40
2019-04-23T00:52:48.727Z,64.30
2019-04-23T00:55:15.946Z,64.00
2019-04-23T00:57:56.114Z,65.70
2019-04-23T01:02:53.156Z,67.20
2019-04-23T01:05:24.951Z,66.40
2019-04-23T01:07:59.733Z,67.90
2019-04-23T01:10:46.272Z,68.80
2019-04-23T01:13:14.824Z,69.30
2019-04-23T01:15:46.777Z,69.30
2019-04-23T01:18:32.164Z,69.20
2019-04-23T01:20:52.924Z,69.60
2019-04-23T01:23:11.573Z,70.40
2019-04-23T01:25:56.058Z,70.90
2019-04-23T01:28:42.339Z,70.60
2019-04-23T01:31:18.241Z,71.20
2019-04-23T01:33:44.709Z,71.90
2019-04-23T01:36:21.920Z,72.50
2019-04-23T01:41:21.712Z,72.30
2019-04-23T01:44:09.380Z,73.70
2019-04-23T01:46:21.714Z,74.60
2019-04-23T01:48:59.799Z,76.90
2019-04-23T01:51:33.872Z,76.90
2019-04-23T01:53:57.132Z,77.30
2019-04-23T01:56:30.765Z,77.40
2019-04-23T01:59:05.507Z,78.40
2019-04-23T02:01:38.798Z,79.00
2019-04-23T02:04:12.812Z,79.30
2019-04-23T02:06:38.620Z,80.40
2019-04-23T02:09:13.932Z,79.90
2019-04-23T02:11:46.753Z,79.70
2019-04-23T02:14:14.883Z,80.90
2019-04-23T02:16:47.813Z,80.30
2019-04-23T02:22:01.194Z,83.80
2019-04-23T02:24:39.622Z,86.10
2019-04-23T02:27:07.337Z,89.50
2019-04-23T02:29:51.400Z,87.60
2019-04-23T02:32:09.070Z,87.30
2019-04-23T02:34:52.697Z,87.00
2019-04-23T02:37:28.633Z,87.30
2019-04-23T02:42:47.072Z,88.80
2019-04-23T02:47:23.013Z,90.00
2019-04-23T02:54:56.738Z,89.70
2019-04-23T02:57:35.480Z,90.40
2019-04-23T03:02:42.943Z,90.40
2019-04-23T03:05:08.686Z,91.10
2019-04-23T03:10:10.117Z,91.10
2019-04-23T03:13:03.956Z,91.80
2019-04-23T03:15:39.342Z,91.10
2019-04-23T03:21:21.719Z,91.60
2019-04-23T03:23:52.200Z,91.60
2019-04-23T03:29:04.370Z,91.90
2019-04-23T03:32:48.410Z,92.40
2019-04-23T03:36:12.739Z,93.10
2019-04-23T03:38:48.428Z,93.70
2019-04-23T03:44:09.306Z,95.10
2019-04-23T03:48:53.128Z,96.60
2019-04-23T03:56:46.505Z,95.50
2019-04-23T03:59:27.150Z,96.00
2019-04-23T04:01:34.804Z,96.10
2019-04-23T04:04:28.037Z,96.30
2019-04-23T04:06:48.072Z,97.20
2019-04-23T04:11:29.144Z,97.50
2019-04-23T04:19:25.156Z,98.50
2019-04-23T04:21:58.563Z,98.50
2019-04-23T04:24:27.655Z,98.00
2019-04-23T04:27:03.701Z,97.50
2019-04-23T04:29:34.998Z,99.30
2019-04-23T04:31:59.843Z,97.70
2019-04-23T04:34:56.448Z,98.90
2019-04-23T04:37:26.862Z,98.50
2019-04-23T04:39:33.549Z,98.00
2019-04-23T04:42:04.570Z,97.80
2019-04-23T04:44:42.709Z,98.20
2019-04-23T04:47:33.900Z,98.30
2019-04-23T04:54:24.537Z,97.60
2019-04-23T04:57:28.484Z,97.50
2019-04-23T04:59:54.161Z,97.70
2019-04-23T05:02:25.742Z,97.30
2019-04-23T05:04:59.749Z,97.60
2019-04-23T05:07:27.660Z,97.50
2019-04-23T05:12:22.961Z,97.90
2019-04-23T05:14:58.730Z,97.90
2019-04-23T05:17:57.231Z,97.50
2019-04-23T05:23:12.388Z,97.50
2019-04-23T05:25:10.962Z,98.00
2019-04-23T05:27:53.730Z,98.20
2019-04-23T05:30:29.192Z,97.80
2019-04-23T05:32:58.038Z,97.40
2019-04-23T05:35:33.332Z,97.70
2019-04-23T05:38:18.593Z,97.50
2019-04-23T05:40:51.342Z,97.40
2019-04-23T05:42:58.423Z,97.30
2019-04-23T05:45:31.820Z,97.10
2019-04-23T05:48:11.763Z,97.30
2019-04-23T05:50:44.888Z,97.20
2019-04-23T05:53:10.180Z,97.40
2019-04-23T05:55:42.780Z,97.00
2019-04-23T05:58:12.701Z,96.80
2019-04-23T06:00:48.834Z,96.30
2019-04-23T06:03:19.500Z,96.10
2019-04-23T06:08:32.223Z,95.40
2019-04-23T06:10:58.681Z,95.10
2019-04-23T06:13:31.592Z,95.50
2019-04-23T06:15:59.776Z,95.10
2019-04-23T06:18:30.464Z,94.60
2019-04-23T06:21:04.465Z,94.00
2019-04-23T06:23:46.377Z,94.10
2019-04-23T06:26:19.907Z,93.60
2019-04-23T06:28:46.679Z,93.20
2019-04-23T06:31:20.435Z,93.10
2019-04-23T06:33:48.039Z,92.60
2019-04-23T06:36:19.535Z,92.10
2019-04-23T06:38:55.114Z,92.50
2019-04-23T06:41:23.671Z,92.60
2019-04-23T06:44:12.949Z,92.80
2019-04-23T06:46:39.790Z,91.70
2019-04-23T06:49:15.271Z,92.10
2019-04-23T06:51:45.691Z,92.40
2019-04-23T06:54:15.229Z,91.20
2019-04-23T06:56:54.387Z,91.70
2019-04-23T06:59:20.005Z,92.00
2019-04-23T07:01:56.151Z,91.60
2019-04-23T07:04:18.155Z,91.30
2019-04-23T07:06:56.616Z,91.40
2019-04-23T07:09:13.520Z,91.10
2019-04-23T07:11:51.723Z,91.50
2019-04-23T07:14:31.946Z,91.00
2019-04-23T07:16:58.890Z,92.00
2019-04-23T07:19:30.254Z,91.80
2019-04-23T07:22:06.373Z,91.70
2019-04-23T07:24:28.689Z,90.80
2019-04-23T07:27:03.552Z,90.30
2019-04-23T07:29:47.029Z,90.70
2019-04-23T07:32:05.380Z,89.00
2019-04-23T07:34:44.211Z,89.10
2019-04-23T07:37:15.048Z,87.70
2019-04-23T07:39:57.081Z,87.40
2019-04-23T07:42:29.592Z,86.20
2019-04-23T07:45:14.230Z,82.50
2019-04-23T07:48:06.514Z,81.50
2019-04-23T07:58:14.303Z,76.30
2019-04-23T08:08:11.749Z,80.60
2019-04-23T08:11:23.434Z,79.20
2019-04-23T08:16:18.294Z,77.70
2019-04-23T08:18:49.752Z,75.70
2019-04-23T08:21:19.282Z,73.40
2019-04-23T08:23:55.483Z,70.70
2019-04-23T08:26:48.185Z,70.90
2019-04-23T08:29:25.409Z,71.10
2019-04-23T08:32:00.644Z,70.70
2019-04-23T08:37:05.153Z,70.00
2019-04-23T08:45:13.282Z,67.20
2019-04-23T08:47:37.814Z,68.00
2019-04-23T08:50:04.212Z,67.70
2019-04-23T08:52:28.500Z,69.60
2019-04-23T08:55:11.399Z,66.70
2019-04-23T08:57:38.264Z,65.50
2019-04-23T09:00:07.846Z,65.10
2019-04-23T09:02:40.261Z,65.00
2019-04-23T09:05:24.897Z,64.00
2019-04-23T09:07:58.521Z,63.70
2019-04-23T09:10:19.650Z,62.70
2019-04-23T09:13:01.081Z,62.90
2019-04-23T09:15:37.158Z,60.40
2019-04-23T09:17:56.306Z,58.70
2019-04-23T09:20:26.444Z,58.70
2019-04-23T09:22:51.852Z,60.70
2019-04-23T09:25:36.782Z,59.90
2019-04-23T09:28:01.873Z,59.00
2019-04-23T09:30:35.431Z,59.70
2019-04-23T09:33:25.880Z,59.60
2019-04-23T09:35:58.997Z,59.50
2019-04-23T09:38:50.311Z,58.30
2019-04-23T09:41:22.243Z,57.30
2019-04-23T09:49:34.876Z,57.60
2019-04-23T09:52:11.290Z,58.40
2019-04-23T09:54:45.708Z,56.80
2019-04-23T09:57:04.116Z,58.30
2019-04-23T10:02:04.547Z,56.60
2019-04-23T10:04:31.939Z,55.60
2019-04-23T10:07:01.947Z,55.50
2019-04-23T10:09:20.825Z,55.50
2019-04-23T10:11:51.217Z,54.50
2019-04-23T10:14:21.158Z,55.40
2019-04-23T10:16:51.624Z,54.70
2019-04-23T10:19:24.575Z,55.60
2019-04-23T10:21:55.547Z,56.40
2019-04-23T10:24:27.550Z,55.70
2019-04-23T10:26:57.831Z,54.50
2019-04-23T10:29:31.939Z,53.10
2019-04-23T10:32:03.884Z,53.40
2019-04-23T10:34:46.084Z,52.90
2019-04-23T10:37:07.279Z,51.50
2019-04-23T10:39:41.273Z,50.60
2019-04-23T10:42:11.915Z,50.90
2019-04-23T10:44:52.354Z,50.00
2019-04-23T10:48:15.490Z,49.20
2019-04-23T10:51:25.035Z,48.50
2019-04-23T10:56:15.742Z,49.50
2019-04-23T11:01:14.926Z,50.50
2019-04-23T11:06:26.838Z,48.20
2019-04-23T11:08:48.217Z,47.30
2019-04-23T11:11:25.930Z,46.30
2019-04-23T11:13:53.455Z,48.30
2019-04-23T11:16:45.831Z,48.60
2019-04-23T11:21:40.371Z,47.30
2019-04-23T11:24:13.951Z,47.50
2019-04-23T11:26:34.469Z,48.00
2019-04-23T11:29:16.824Z,47.30
2019-04-23T11:34:12.249Z,47.50
2019-04-23T11:39:08.715Z,44.60
2019-04-23T11:44:28.860Z,42.80
2019-04-23T11:47:04.247Z,40.80
2019-04-23T11:49:50.594Z,40.50
2019-04-23T11:54:33.724Z,39.90
2019-04-23T11:59:35.986Z,39.00
2019-04-23T12:02:35.417Z,38.20
2019-04-23T12:08:09.272Z,39.80
2019-04-23T12:11:15.236Z,38.30
2019-04-23T12:13:36.867Z,38.00
2019-04-23T12:16:00.737Z,37.30
2019-04-23T12:21:20.503Z,37.20
2019-04-23T12:23:54.507Z,37.10
2019-04-23T12:26:34.187Z,36.80
2019-04-23T12:31:34.782Z,37.70
2019-04-23T12:33:57.431Z,36.60
2019-04-23T12:36:45.573Z,38.90
2019-04-23T12:39:25.927Z,39.10
2019-04-23T12:42:11.175Z,39.00
2019-04-23T12:44:33.452Z,38.00
2019-04-23T12:47:06.542Z,39.10
2019-04-23T12:49:57.487Z,37.40
2019-04-23T12:52:11.411Z,38.80
2019-04-23T12:59:47.650Z,40.00
2019-04-23T13:02:26.065Z,40.90
2019-04-23T13:04:48.755Z,39.20
2019-04-23T13:07:26.396Z,39.50
2019-04-23T13:12:36.341Z,41.30
2019-04-23T13:15:02.786Z,41.00
2019-04-23T13:17:38.075Z,42.00
2019-04-23T13:20:00.522Z,43.20
2019-04-23T13:25:19.637Z,44.50
2019-04-23T13:28:02.730Z,44.10
2019-04-23T13:30:31.472Z,42.80
2019-04-23T13:33:03.080Z,42.70
2019-04-23T13:37:58.990Z,41.10
2019-04-23T13:43:01.514Z,39.90
2019-04-23T13:45:53.134Z,39.40
2019-04-23T13:53:26.556Z,41.00
2019-04-23T13:55:42.449Z,40.80
2019-04-23T13:58:19.924Z,40.00
2019-04-23T14:03:30.418Z,38.80
2019-04-23T14:11:26.490Z,39.40
2019-04-23T14:16:29.665Z,39.60
2019-04-23T14:21:24.897Z,40.70
2019-04-23T14:28:55.701Z,40.60
2019-04-23T14:31:23.119Z,40.20
2019-04-23T14:36:36.145Z,40.00
2019-04-23T14:39:15.781Z,40.80
2019-04-23T14:41:32.236Z,42.00
2019-04-23T14:44:31.567Z,42.10
2019-04-23T14:47:22.039Z,42.80
2019-04-23T14:49:58.799Z,43.50
2019-04-23T14:52:21.266Z,43.80
2019-04-23T14:55:33.944Z,44.40
2019-04-23T14:57:34.174Z,45.30
2019-04-23T15:00:03.256Z,45.40
2019-04-23T15:02:40.984Z,46.30
2019-04-23T15:05:09.700Z,46.30
2019-04-23T15:07:37.535Z,47.40
2019-04-23T15:10:08.611Z,47.10
2019-04-23T15:12:38.704Z,47.90
2019-04-23T15:17:40.530Z,49.20
2019-04-23T15:23:08.586Z,49.90
2019-04-23T15:25:36.857Z,50.30
2019-04-23T15:30:14.373Z,52.20
2019-04-23T15:33:18.484Z,51.20
2019-04-23T15:36:02.242Z,51.70
2019-04-23T15:38:18.867Z,51.20
2019-04-23T15:43:14.509Z,51.40
2019-04-23T15:45:42.314Z,51.70
2019-04-23T15:48:11.776Z,51.80
2019-04-23T15:50:43.520Z,52.00
2019-04-23T15:53:08.057Z,51.80
2019-04-23T16:01:17.647Z,52.30
2019-04-23T16:03:19.730Z,52.70
2019-04-23T16:05:50.966Z,53.50
2019-04-23T16:08:59.496Z,52.80
2019-04-23T16:11:36.517Z,52.70
2019-04-23T16:14:11.331Z,53.30
2019-04-23T16:19:21.956Z,53.60
2019-04-23T16:32:20.512Z,51.10
2019-04-23T16:37:07.734Z,50.30
2019-04-23T16:39:39.391Z,49.00
2019-04-23T16:42:18.200Z,48.30
2019-04-23T16:44:56.295Z,48.50
2019-04-23T16:47:18.602Z,48.70
2019-04-23T16:49:58.358Z,49.00
2019-04-23T16:52:24.412Z,48.00
2019-04-23T16:54:56.544Z,49.30
2019-04-23T16:57:35.685Z,48.90
2019-04-23T17:02:28.062Z,49.20
2019-04-23T17:05:02.863Z,50.10
2019-04-23T17:07:29.943Z,49.90
2019-04-23T17:10:08.254Z,49.60
2019-04-23T17:12:42.447Z,50.40
2019-04-23T17:15:09.312Z,50.40
2019-04-23T17:17:40.940Z,51.30
2019-04-23T17:20:27.192Z,51.60
2019-04-23T17:22:51.071Z,51.80
2019-04-23T17:28:01.107Z,52.20
2019-04-23T17:30:20.257Z,52.50
2019-04-23T17:33:07.781Z,52.20
2019-04-23T17:35:30.126Z,52.10
2019-04-23T17:38:15.048Z,52.70
2019-04-23T17:40:53.201Z,52.80
2019-04-23T17:43:26.887Z,53.00
2019-04-23T17:45:56.698Z,53.20
2019-04-23T17:48:43.856Z,53.80
2019-04-23T17:53:42.849Z,54.70
2019-04-23T17:56:26.968Z,55.40
2019-04-23T17:58:43.508Z,56.10
2019-04-23T18:03:52.053Z,57.40
2019-04-23T18:08:50.946Z,58.90
2019-04-23T18:11:24.549Z,59.40
2019-04-23T18:13:57.909Z,60.10
2019-04-23T18:24:27.310Z,62.70
2019-04-23T18:27:18.008Z,63.50
2019-04-23T18:32:58.718Z,64.50
2019-04-23T18:37:39.200Z,67.30
2019-04-23T18:39:58.941Z,66.50
2019-04-23T18:45:20.271Z,67.70
2019-04-23T18:47:45.836Z,67.70
2019-04-23T18:50:15.632Z,68.60
2019-04-23T18:52:50.889Z,69.90
2019-04-23T18:55:29.537Z,69.70
2019-04-23T18:57:51.630Z,70.30
2019-04-23T19:00:24.083Z,70.60
2019-04-23T19:03:11.358Z,71.00
2019-04-23T19:06:01.201Z,71.90
2019-04-23T19:08:58.277Z,73.30
2019-04-23T19:14:25.715Z,73.80
2019-04-23T19:17:08.895Z,74.20
2019-04-23T19:19:28.632Z,74.60
2019-04-23T19:24:33.083Z,76.00
2019-04-23T19:29:39.589Z,77.10
2019-04-23T19:32:14.161Z,77.00
2019-04-23T19:34:39.486Z,78.50
2019-04-23T19:39:47.001Z,78.10
2019-04-23T19:47:27.177Z,78.90
2019-04-23T19:50:03.897Z,79.70
2019-04-23T19:52:21.209Z,80.70
2019-04-23T19:54:58.807Z,82.20
2019-04-23T20:00:09.659Z,82.80
2019-04-23T20:02:56.760Z,84.70
2019-04-23T20:05:18.683Z,84.70
2019-04-23T20:07:43.234Z,84.90
2019-04-23T20:09:56.485Z,85.00
2019-04-23T20:14:59.980Z,83.60
2019-04-23T20:20:08.821Z,85.40
2019-04-23T20:22:48.958Z,85.80
2019-04-23T20:27:54.178Z,86.50
2019-04-23T20:30:41.327Z,86.70
2019-04-23T20:33:51.996Z,83.70
2019-04-23T20:35:50.307Z,83.80
2019-04-23T20:43:23.788Z,85.80
2019-04-23T20:46:10.926Z,86.30
2019-04-23T20:48:31.055Z,86.70
2019-04-23T20:50:51.917Z,87.00
2019-04-23T20:53:33.021Z,87.20
2019-04-23T20:58:54.785Z,88.20
2019-04-23T21:01:44.383Z,88.70
2019-04-23T21:04:03.274Z,89.30
2019-04-23T21:06:37.462Z,89.40
2019-04-23T21:11:48.318Z,90.10
2019-04-23T21:14:41.281Z,90.20
2019-04-23T21:16:40.864Z,90.60
2019-04-23T21:19:22.037Z,90.80
2019-04-23T21:22:09.893Z,91.00
2019-04-23T21:24:43.044Z,91.30
2019-04-23T21:27:20.310Z,92.10
2019-04-23T21:29:53.619Z,91.80
2019-04-23T21:32:24.782Z,92.00
2019-04-23T21:34:55.677Z,92.20
2019-04-23T21:37:43.381Z,92.70
2019-04-23T21:40:35.926Z,92.90
2019-04-23T21:45:31.286Z,93.50
2019-04-23T21:48:10.223Z,93.80
2019-04-23T21:50:54.335Z,94.20
2019-04-23T21:52:58.206Z,94.50
2019-04-23T21:55:47.201Z,94.70
2019-04-23T22:00:53.433Z,95.40
2019-04-23T22:03:24.634Z,95.50
2019-04-23T22:05:51.170Z,95.80
2019-04-23T22:08:19.578Z,96.00
2019-04-23T22:10:57.328Z,96.60
2019-04-23T22:16:04.073Z,97.50
2019-04-23T22:18:27.169Z,97.90
2019-04-23T22:20:59.985Z,98.60
2019-04-23T22:23:34.187Z,99.10
2019-04-23T22:26:07.928Z,99.50
2019-04-23T22:28:39.709Z,99.60
2019-04-23T22:31:14.920Z,99.90
2019-04-23T22:36:09.396Z,99.90
2019-04-23T22:38:43.573Z,99.90
2019-04-23T22:41:14.303Z,99.90
2019-04-23T22:43:53.061Z,99.90
2019-04-23T22:46:23.033Z,99.90
2019-04-23T22:49:22.842Z,99.90
2019-04-23T22:51:49.206Z,99.90
2019-04-23T22:54:08.437Z,99.90
2019-04-23T22:56:51.903Z,99.90
2019-04-23T23:01:56.732Z,99.90
2019-04-23T23:04:20.297Z,99.90
2019-04-23T23:07:01.081Z,99.90
2019-04-23T23:09:25.329Z,99.90
2019-04-23T23:14:35.454Z,99.90
2019-04-23T23:17:18.467Z,99.90
2019-04-23T23:22:10.238Z,99.90
2019-04-23T23:24:53.701Z,99.90
2019-04-23T23:27:35.968Z,99.90
2019-04-23T23:29:56.066Z,99.90
2019-04-23T23:32:22.979Z,99.90
2019-04-23T23:35:14.511Z,99.90
2019-04-23T23:37:19.059Z,99.90
2019-04-23T23:39:59.980Z,99.90
2019-04-23T23:42:28.632Z,99.90
2019-04-23T23:45:06.950Z,99.90
2019-04-23T23:47:44.797Z,99.90
2019-04-23T23:50:09.726Z,99.90
2019-04-23T23:52:39.301Z,99.90
2019-04-23T23:55:07.749Z,99.90
2019-04-23T23:57:58.040Z,99.90
